Saluvia, Pennsylvania
Current Conditions -  °F | °C
As of 11:53 PM on Friday 21 Nov 2014 (Local Time) from KAOO Reporting Station
Clear Clear  
Wind Chill: 16°   Ceiling: Unl
Heat Index: 16°   Visibility: 10mi
Dew Point: 10°   Wind: 0mph
Humidity: 77%   Direction: NA
Pressure: 30.43"   Gusts: NA
Location:  39.9765°N, 78.0835°W
Report Text: KAOO 220453Z AUTO 00000KT 10SM CLR M09/M12 A3043 RMK AO2 SLP329 T10891122 410281094
Loading
Personal Weather Stations






























Interactive Weather Map New forecast layout! Learn more

10-Day Weather Forecast

Advertisements
Track Severe Weather on mobile